Aérodrome :
LOGIN :

S'inscrire | Disclaimer

   EN    FR    IT 

 










Légende :    VFR   VFR Marginal   IFR   IFR Intensif   IFR Très Intensif
Visi : 
Plafond : 
>= 8 km
>= 3000ft
5 à 8 km
1000 à 3000 ft
1500m à 5 km
500 à 1000 ft
800 à 1500m
200 à 500 ft
< 800m
< 200 ft
Symboles :   Orages  Brouillard  Fortes neiges  Fortes précipitations  Vent > 20 kt
SIGMETs :   Divers  Orages  Givrage  Turbulence  Onde Orograph.  Cendres Volcan.







- Altitude de l'aérodrome : 416 ft
- Code IATA : OVD


LEAS - Asturias

DERNIER METAR :
  • 240430Z AUTO 24002KT 9999 NCD 07/05 Q1026

METARs EXPIRÉS :
  • 240400Z AUTO 00000KT 9999 NCD 08/06 Q1025
  • 240330Z AUTO 28003KT 9999 NCD 08/05 Q1025
  • 240300Z AUTO VRB01KT 9999 NCD 08/06 Q1025
  • 240230Z AUTO 16003KT 9999 NCD 08/08 Q1025
  • 240200Z AUTO 13003KT 080V150 9999 NCD 09/08 Q1025

TAF TAF LEAS
Valide du 24 à 03h jusqu'au 25 à 03h UTC


240200Z 2403/2503 12005KT 8000 FEW010 TX18/2414Z TN06/2406Z
TEMPO 2403/2410 3000 BR
PROB40
TEMPO 2404/2410 1500 BCFG BKN003
BECMG 2410/2414 06010KT
BECMG 2418/2421 12005KT
PROB40
TEMPO 2420/2503 3000 BR BKN010
PROB40
TEMPO 2420/2503 1500 BCFG BKN003
Pas de NOTAMs connus pour ce terrain.



MET'MAP, la Météo Aéronautique d'un coup d'oeil ! - Copyright ORBIFLY Décembre 2007 - Disclaimer

ORBIFLY MET'MAP TEAM :

Programmation & Développement : Alexandra Zaïnal
Conception & Développement : Baudouin d'Aumeries
Co-Programmation & Développement : Marc-Olivier Méhu
Soutien technique & logistique : Manuel Goepfert

Contact : metmap@orbifly.com




SOURCES & CREDITS :

   NOAA